sensor_id;sensor_type;location;lat;lon;timestamp;pressure;altitude;pressure_sealevel;temperature;humidity
6132;BME280;3097;42.692;23.278;2023-02-17T00:01:22;95944.22;;;2.58;71.63
6132;BME280;3097;42.692;23.278;2023-02-17T00:03:48;95949.56;;;2.47;72.26
6132;BME280;3097;42.692;23.278;2023-02-17T00:06:16;95947.81;;;2.47;72.06
6132;BME280;3097;42.692;23.278;2023-02-17T00:08:42;95939.66;;;2.44;72.17
6132;BME280;3097;42.692;23.278;2023-02-17T00:11:08;95948.13;;;2.34;72.47
6132;BME280;3097;42.692;23.278;2023-02-17T00:13:33;95937.06;;;2.26;72.50
6132;BME280;3097;42.692;23.278;2023-02-17T00:15:59;95948.44;;;2.31;72.73
6132;BME280;3097;42.692;23.278;2023-02-17T00:18:24;95953.41;;;2.33;72.62
6132;BME280;3097;42.692;23.278;2023-02-17T00:20:50;95947.41;;;2.24;73.04
6132;BME280;3097;42.692;23.278;2023-02-17T00:23:16;95939.25;;;2.21;72.89
6132;BME280;3097;42.692;23.278;2023-02-17T00:25:42;95945.59;;;2.17;72.96
6132;BME280;3097;42.692;23.278;2023-02-17T00:28:07;95934.75;;;2.15;73.57
6132;BME280;3097;42.692;23.278;2023-02-17T00:30:33;95868.44;;;1.81;73.09
6132;BME280;3097;42.692;23.278;2023-02-17T00:32:58;95929.75;;;2.23;73.57
6132;BME280;3097;42.692;23.278;2023-02-17T00:35:24;95927.34;;;2.21;74.48
6132;BME280;3097;42.692;23.278;2023-02-17T00:37:49;95919.06;;;2.19;74.27
6132;BME280;3097;42.692;23.278;2023-02-17T00:40:15;95922.41;;;2.38;73.04
6132;BME280;3097;42.692;23.278;2023-02-17T00:42:41;95917.47;;;2.36;72.50
6132;BME280;3097;42.692;23.278;2023-02-17T00:45:07;95917.44;;;2.18;73.28
6132;BME280;3097;42.692;23.278;2023-02-17T00:47:32;95913.38;;;2.08;74.24
6132;BME280;3097;42.692;23.278;2023-02-17T00:49:58;95921.47;;;2.21;74.26
6132;BME280;3097;42.692;23.278;2023-02-17T00:52:23;95929.22;;;2.19;74.25
6132;BME280;3097;42.692;23.278;2023-02-17T00:54:48;95924.09;;;2.29;73.67
6132;BME280;3097;42.692;23.278;2023-02-17T00:57:14;95920.59;;;2.30;73.38
6132;BME280;3097;42.692;23.278;2023-02-17T00:59:39;95899.81;;;2.17;73.50
6132;BME280;3097;42.692;23.278;2023-02-17T01:02:05;95914.94;;;2.36;74.02
6132;BME280;3097;42.692;23.278;2023-02-17T01:04:30;95911.44;;;2.37;74.21
6132;BME280;3097;42.692;23.278;2023-02-17T01:06:56;95902.81;;;2.48;73.73
6132;BME280;3097;42.692;23.278;2023-02-17T01:09:21;95907.50;;;2.43;73.57
6132;BME280;3097;42.692;23.278;2023-02-17T01:11:47;95903.16;;;2.35;74.41
6132;BME280;3097;42.692;23.278;2023-02-17T01:14:13;95897.72;;;2.48;73.52
6132;BME280;3097;42.692;23.278;2023-02-17T01:16:43;95910.59;;;2.46;73.53
6132;BME280;3097;42.692;23.278;2023-02-17T01:19:12;95899.97;;;2.33;73.44
6132;BME280;3097;42.692;23.278;2023-02-17T01:21:38;95916.69;;;2.53;72.96
6132;BME280;3097;42.692;23.278;2023-02-17T01:24:05;95911.72;;;2.34;73.61
6132;BME280;3097;42.692;23.278;2023-02-17T01:26:32;95901.00;;;2.40;73.64
6132;BME280;3097;42.692;23.278;2023-02-17T01:28:58;95901.75;;;2.41;73.21
6132;BME280;3097;42.692;23.278;2023-02-17T01:31:25;95907.38;;;2.44;72.88
6132;BME280;3097;42.692;23.278;2023-02-17T01:33:58;95898.84;;;2.36;72.91
6132;BME280;3097;42.692;23.278;2023-02-17T01:36:24;95831.94;;;2.00;72.58
6132;BME280;3097;42.692;23.278;2023-02-17T01:38:50;95895.44;;;2.27;73.20
6132;BME280;3097;42.692;23.278;2023-02-17T01:41:18;95881.06;;;2.18;73.21
6132;BME280;3097;42.692;23.278;2023-02-17T01:44:03;95904.00;;;2.26;73.29
6132;BME280;3097;42.692;23.278;2023-02-17T01:46:32;95901.47;;;2.26;73.80
6132;BME280;3097;42.692;23.278;2023-02-17T01:48:57;95885.44;;;2.25;73.40
6132;BME280;3097;42.692;23.278;2023-02-17T01:51:25;95879.97;;;2.20;73.32
6132;BME280;3097;42.692;23.278;2023-02-17T01:53:55;95861.41;;;1.92;74.50
6132;BME280;3097;42.692;23.278;2023-02-17T01:56:23;95894.94;;;2.23;73.92
6132;BME280;3097;42.692;23.278;2023-02-17T01:58:53;95885.84;;;2.21;73.81
6132;BME280;3097;42.692;23.278;2023-02-17T02:01:20;95886.72;;;2.12;74.55
6132;BME280;3097;42.692;23.278;2023-02-17T02:03:46;95887.16;;;2.25;74.32
6132;BME280;3097;42.692;23.278;2023-02-17T02:06:15;95888.16;;;2.14;74.65
6132;BME280;3097;42.692;23.278;2023-02-17T02:11:21;95888.03;;;2.16;73.75
6132;BME280;3097;42.692;23.278;2023-02-17T02:13:47;95890.66;;;2.24;73.76
6132;BME280;3097;42.692;23.278;2023-02-17T02:16:28;95882.00;;;2.17;74.05
6132;BME280;3097;42.692;23.278;2023-02-17T02:19:04;95886.00;;;2.19;73.59
6132;BME280;3097;42.692;23.278;2023-02-17T02:22:14;95886.34;;;2.07;73.84
6132;BME280;3097;42.692;23.278;2023-02-17T02:38:15;95878.28;;;1.93;75.21
6132;BME280;3097;42.692;23.278;2023-02-17T02:40:45;95888.50;;;1.84;75.29
6132;BME280;3097;42.692;23.278;2023-02-17T02:43:12;95888.44;;;1.93;74.76
6132;BME280;3097;42.692;23.278;2023-02-17T02:45:38;95892.16;;;1.99;74.94
6132;BME280;3097;42.692;23.278;2023-02-17T02:48:04;95890.63;;;2.06;74.17
6132;BME280;3097;42.692;23.278;2023-02-17T03:04:33;95887.91;;;1.90;74.48
6132;BME280;3097;42.692;23.278;2023-02-17T03:07:14;95887.91;;;1.90;74.45
6132;BME280;3097;42.692;23.278;2023-02-17T03:09:48;95887.69;;;1.83;74.66
6132;BME280;3097;42.692;23.278;2023-02-17T03:12:14;95868.78;;;1.68;75.06
6132;BME280;3097;42.692;23.278;2023-02-17T03:14:41;95884.22;;;1.84;74.54
6132;BME280;3097;42.692;23.278;2023-02-17T03:17:07;95893.47;;;1.76;75.23
6132;BME280;3097;42.692;23.278;2023-02-17T03:19:33;95889.97;;;1.86;74.55
6132;BME280;3097;42.692;23.278;2023-02-17T03:24:44;95892.19;;;1.72;75.07
6132;BME280;3097;42.692;23.278;2023-02-17T03:27:09;95893.91;;;1.71;75.14
6132;BME280;3097;42.692;23.278;2023-02-17T03:29:35;95897.09;;;1.73;76.34
6132;BME280;3097;42.692;23.278;2023-02-17T03:32:00;95880.44;;;1.61;76.90
6132;BME280;3097;42.692;23.278;2023-02-17T03:34:26;95850.16;;;1.50;77.16
6132;BME280;3097;42.692;23.278;2023-02-17T03:36:51;95884.66;;;1.80;77.47
6132;BME280;3097;42.692;23.278;2023-02-17T03:39:17;95887.50;;;1.94;76.64
6132;BME280;3097;42.692;23.278;2023-02-17T03:41:42;95876.44;;;2.04;75.75
6132;BME280;3097;42.692;23.278;2023-02-17T03:44:08;95882.78;;;2.00;76.20
6132;BME280;3097;42.692;23.278;2023-02-17T03:46:33;95887.00;;;2.09;75.35
6132;BME280;3097;42.692;23.278;2023-02-17T03:48:59;95895.78;;;1.97;75.99
6132;BME280;3097;42.692;23.278;2023-02-17T03:51:24;95887.66;;;2.11;75.22
6132;BME280;3097;42.692;23.278;2023-02-17T03:53:50;95883.13;;;2.05;75.39
6132;BME280;3097;42.692;23.278;2023-02-17T03:56:17;95876.44;;;2.04;75.36
6132;BME280;3097;42.692;23.278;2023-02-17T03:58:43;95861.41;;;1.92;75.75
6132;BME280;3097;42.692;23.278;2023-02-17T04:01:10;95885.75;;;2.13;75.22
6132;BME280;3097;42.692;23.278;2023-02-17T04:03:37;95893.69;;;2.10;74.79
6132;BME280;3097;42.692;23.278;2023-02-17T04:06:03;95883.72;;;1.99;75.47
6132;BME280;3097;42.692;23.278;2023-02-17T04:08:29;95883.78;;;1.89;75.61
6132;BME280;3097;42.692;23.278;2023-02-17T04:10:57;95838.84;;;1.62;75.34
6132;BME280;3097;42.692;23.278;2023-02-17T04:13:23;95889.03;;;1.87;75.59
6132;BME280;3097;42.692;23.278;2023-02-17T04:15:49;95887.78;;;1.91;75.24
6132;BME280;3097;42.692;23.278;2023-02-17T04:18:15;95886.13;;;2.00;74.99
6132;BME280;3097;42.692;23.278;2023-02-17T04:20:41;95825.84;;;1.47;75.83
6132;BME280;3097;42.692;23.278;2023-02-17T04:23:07;95866.69;;;1.81;74.73
6132;BME280;3097;42.692;23.278;2023-02-17T04:25:34;95880.88;;;1.84;75.73
6132;BME280;3097;42.692;23.278;2023-02-17T04:28:00;95886.47;;;1.87;75.64
6132;BME280;3097;42.692;23.278;2023-02-17T04:30:26;95885.38;;;1.90;75.05
6132;BME280;3097;42.692;23.278;2023-02-17T04:32:51;95881.44;;;1.95;74.89
6132;BME280;3097;42.692;23.278;2023-02-17T04:35:17;95875.41;;;1.79;75.09
6132;BME280;3097;42.692;23.278;2023-02-17T04:37:42;95882.81;;;1.72;75.48
6132;BME280;3097;42.692;23.278;2023-02-17T04:40:08;95892.00;;;1.73;76.08
6132;BME280;3097;42.692;23.278;2023-02-17T04:42:35;95892.78;;;1.83;75.52
6132;BME280;3097;42.692;23.278;2023-02-17T04:45:00;95895.75;;;1.79;75.79
6132;BME280;3097;42.692;23.278;2023-02-17T04:47:26;95890.53;;;1.80;75.43
6132;BME280;3097;42.692;23.278;2023-02-17T04:49:52;95885.34;;;1.72;75.51
6132;BME280;3097;42.692;23.278;2023-02-17T04:52:17;95775.50;;;1.06;75.61
6132;BME280;3097;42.692;23.278;2023-02-17T04:54:43;95886.47;;;1.60;75.90
6132;BME280;3097;42.692;23.278;2023-02-17T04:57:08;95886.47;;;1.60;76.57
6132;BME280;3097;42.692;23.278;2023-02-17T04:59:34;95891.16;;;1.65;76.24
6132;BME280;3097;42.692;23.278;2023-02-17T05:01:59;95889.81;;;1.61;76.57
6132;BME280;3097;42.692;23.278;2023-02-17T05:04:25;95901.16;;;1.66;76.57
6132;BME280;3097;42.692;23.278;2023-02-17T05:06:50;95897.31;;;1.62;76.77
6132;BME280;3097;42.692;23.278;2023-02-17T05:09:16;95912.66;;;1.70;76.25
6132;BME280;3097;42.692;23.278;2023-02-17T05:11:41;95910.19;;;1.78;76.23
6132;BME280;3097;42.692;23.278;2023-02-17T05:14:07;95909.25;;;1.79;75.79
6132;BME280;3097;42.692;23.278;2023-02-17T05:16:32;95900.88;;;1.69;76.09
6132;BME280;3097;42.692;23.278;2023-02-17T05:18:57;95913.91;;;1.57;77.27
6132;BME280;3097;42.692;23.278;2023-02-17T05:21:23;95918.00;;;1.67;76.73
6132;BME280;3097;42.692;23.278;2023-02-17T05:23:48;95938.63;;;1.64;77.36
6132;BME280;3097;42.692;23.278;2023-02-17T05:26:14;95928.25;;;1.75;77.10
6132;BME280;3097;42.692;23.278;2023-02-17T05:28:39;95915.19;;;1.70;77.84
6132;BME280;3097;42.692;23.278;2023-02-17T05:31:05;95923.81;;;1.87;77.47
6132;BME280;3097;42.692;23.278;2023-02-17T05:33:31;95920.56;;;1.94;77.06
6132;BME280;3097;42.692;23.278;2023-02-17T05:36:07;95922.66;;;1.99;76.37
6132;BME280;3097;42.692;23.278;2023-02-17T05:38:34;95924.94;;;2.02;76.33
6132;BME280;3097;42.692;23.278;2023-02-17T05:41:00;95942.03;;;2.10;76.63
6132;BME280;3097;42.692;23.278;2023-02-17T05:43:26;95943.31;;;2.14;76.29
6132;BME280;3097;42.692;23.278;2023-02-17T05:45:51;95938.16;;;2.06;76.64
6132;BME280;3097;42.692;23.278;2023-02-17T05:48:17;95883.28;;;1.85;76.24
6132;BME280;3097;42.692;23.278;2023-02-17T05:50:42;95945.94;;;2.22;76.46
6132;BME280;3097;42.692;23.278;2023-02-17T05:53:08;95947.47;;;2.15;76.96
6132;BME280;3097;42.692;23.278;2023-02-17T05:55:33;95950.47;;;2.28;76.23
6132;BME280;3097;42.692;23.278;2023-02-17T05:57:59;95952.72;;;2.31;75.62
6132;BME280;3097;42.692;23.278;2023-02-17T06:00:25;95951.72;;;2.42;75.30
6132;BME280;3097;42.692;23.278;2023-02-17T06:02:50;95957.00;;;2.48;74.28
6132;BME280;3097;42.692;23.278;2023-02-17T06:05:15;95944.69;;;2.53;74.20
6132;BME280;3097;42.692;23.278;2023-02-17T06:07:41;95954.00;;;2.62;74.26
6132;BME280;3097;42.692;23.278;2023-02-17T06:10:07;95948.72;;;2.64;74.38
6132;BME280;3097;42.692;23.278;2023-02-17T06:12:33;95957.75;;;2.76;74.33
6132;BME280;3097;42.692;23.278;2023-02-17T06:14:58;95945.19;;;2.75;73.90
6132;BME280;3097;42.692;23.278;2023-02-17T06:17:24;95951.63;;;2.87;73.86
6132;BME280;3097;42.692;23.278;2023-02-17T06:19:50;95955.84;;;2.96;73.51
6132;BME280;3097;42.692;23.278;2023-02-17T06:22:15;95935.00;;;2.92;73.55
6132;BME280;3097;42.692;23.278;2023-02-17T06:24:41;95958.00;;;3.08;73.36
6132;BME280;3097;42.692;23.278;2023-02-17T06:27:06;95917.38;;;2.99;72.98
6132;BME280;3097;42.692;23.278;2023-02-17T06:29:32;95961.63;;;3.24;73.24
6132;BME280;3097;42.692;23.278;2023-02-17T06:31:57;95969.84;;;3.35;73.00
6132;BME280;3097;42.692;23.278;2023-02-17T06:34:23;95971.06;;;3.57;71.97
6132;BME280;3097;42.692;23.278;2023-02-17T06:36:48;95968.72;;;3.64;72.09
6132;BME280;3097;42.692;23.278;2023-02-17T06:39:13;95962.53;;;3.66;72.17
6132;BME280;3097;42.692;23.278;2023-02-17T06:41:39;95957.31;;;3.76;71.19
6132;BME280;3097;42.692;23.278;2023-02-17T06:44:04;95964.97;;;3.76;71.36
6132;BME280;3097;42.692;23.278;2023-02-17T06:46:30;95972.63;;;3.84;71.53
6132;BME280;3097;42.692;23.278;2023-02-17T06:48:55;95965.63;;;3.86;71.43
6132;BME280;3097;42.692;23.278;2023-02-17T06:51:21;95970.16;;;4.00;70.84
6132;BME280;3097;42.692;23.278;2023-02-17T06:53:46;95975.34;;;4.16;69.98
6132;BME280;3097;42.692;23.278;2023-02-17T06:56:12;95971.06;;;4.25;69.95
6132;BME280;3097;42.692;23.278;2023-02-17T06:58:37;95965.66;;;4.36;69.06
6132;BME280;3097;42.692;23.278;2023-02-17T07:01:03;95974.31;;;4.43;68.86
6132;BME280;3097;42.692;23.278;2023-02-17T07:03:30;95979.88;;;4.39;69.08
6132;BME280;3097;42.692;23.278;2023-02-17T07:05:59;95972.22;;;4.47;69.14
6132;BME280;3097;42.692;23.278;2023-02-17T07:08:25;95970.66;;;4.54;69.06
6132;BME280;3097;42.692;23.278;2023-02-17T07:10:50;95974.47;;;4.50;69.67
6132;BME280;3097;42.692;23.278;2023-02-17T07:13:16;95972.91;;;4.57;70.03
6132;BME280;3097;42.692;23.278;2023-02-17T07:15:41;95980.06;;;4.61;68.14
6132;BME280;3097;42.692;23.278;2023-02-17T07:18:06;95983.59;;;4.60;68.82
6132;BME280;3097;42.692;23.278;2023-02-17T07:20:32;95978.47;;;4.60;68.92
6132;BME280;3097;42.692;23.278;2023-02-17T07:22:59;95971.78;;;4.67;68.33
6132;BME280;3097;42.692;23.278;2023-02-17T07:25:25;95974.66;;;4.64;67.17
6132;BME280;3097;42.692;23.278;2023-02-17T07:27:50;95981.72;;;4.79;67.48
6132;BME280;3097;42.692;23.278;2023-02-17T07:30:16;95979.63;;;4.90;66.61
6132;BME280;3097;42.692;23.278;2023-02-17T07:32:42;95988.25;;;5.05;66.42
6132;BME280;3097;42.692;23.278;2023-02-17T07:35:07;95990.97;;;5.20;65.45
6132;BME280;3097;42.692;23.278;2023-02-17T07:37:33;95964.19;;;5.88;65.51
6132;BME280;3097;42.692;23.278;2023-02-17T07:39:58;95980.91;;;8.03;59.46
6132;BME280;3097;42.692;23.278;2023-02-17T07:42:26;95978.72;;;10.67;51.77
6132;BME280;3097;42.692;23.278;2023-02-17T07:44:51;95975.09;;;13.15;44.61
6132;BME280;3097;42.692;23.278;2023-02-17T07:47:17;95976.25;;;15.08;40.25
6132;BME280;3097;42.692;23.278;2023-02-17T07:49:42;95980.13;;;17.14;36.71
6132;BME280;3097;42.692;23.278;2023-02-17T07:52:07;95950.81;;;18.73;33.99
6132;BME280;3097;42.692;23.278;2023-02-17T07:54:33;95963.47;;;20.19;31.71
6132;BME280;3097;42.692;23.278;2023-02-17T07:56:58;95954.66;;;21.58;28.80
6132;BME280;3097;42.692;23.278;2023-02-17T07:59:24;95951.59;;;22.40;26.66
6132;BME280;3097;42.692;23.278;2023-02-17T08:01:49;95958.25;;;23.26;26.31
6132;BME280;3097;42.692;23.278;2023-02-17T08:04:15;95926.03;;;23.44;25.61
6132;BME280;3097;42.692;23.278;2023-02-17T08:06:40;95940.06;;;24.16;25.42
6132;BME280;3097;42.692;23.278;2023-02-17T08:09:06;95952.50;;;24.40;24.40
6132;BME280;3097;42.692;23.278;2023-02-17T08:11:49;95950.41;;;24.37;24.66
6132;BME280;3097;42.692;23.278;2023-02-17T08:14:34;95922.31;;;24.03;24.82
6132;BME280;3097;42.692;23.278;2023-02-17T08:16:59;95951.00;;;23.81;24.78
6132;BME280;3097;42.692;23.278;2023-02-17T08:19:25;95949.38;;;23.17;26.08
6132;BME280;3097;42.692;23.278;2023-02-17T08:21:52;95952.19;;;22.27;26.82
6132;BME280;3097;42.692;23.278;2023-02-17T08:24:17;95906.91;;;21.20;27.32
6132;BME280;3097;42.692;23.278;2023-02-17T08:26:46;95950.88;;;20.78;28.58
6132;BME280;3097;42.692;23.278;2023-02-17T08:29:11;95951.59;;;20.01;29.30
6132;BME280;3097;42.692;23.278;2023-02-17T08:31:37;95947.16;;;19.32;30.50
6132;BME280;3097;42.692;23.278;2023-02-17T08:34:07;95945.50;;;18.89;32.00
6132;BME280;3097;42.692;23.278;2023-02-17T08:36:33;95940.91;;;18.53;32.50
6132;BME280;3097;42.692;23.278;2023-02-17T08:39:02;95944.56;;;18.30;32.52
6132;BME280;3097;42.692;23.278;2023-02-17T08:41:31;95936.34;;;18.22;31.57
6132;BME280;3097;42.692;23.278;2023-02-17T08:43:59;95943.09;;;18.17;30.43
6132;BME280;3097;42.692;23.278;2023-02-17T08:46:26;95947.16;;;18.08;28.75
6132;BME280;3097;42.692;23.278;2023-02-17T08:48:52;95940.06;;;17.65;30.45
6132;BME280;3097;42.692;23.278;2023-02-17T08:51:20;95947.53;;;17.78;29.73
6132;BME280;3097;42.692;23.278;2023-02-17T08:53:49;95940.72;;;17.61;28.20
6132;BME280;3097;42.692;23.278;2023-02-17T08:56:15;95942.25;;;17.40;30.20
6132;BME280;3097;42.692;23.278;2023-02-17T08:58:40;95845.09;;;16.78;29.08
6132;BME280;3097;42.692;23.278;2023-02-17T09:01:06;95953.28;;;17.30;28.76
6132;BME280;3097;42.692;23.278;2023-02-17T09:03:36;95935.13;;;17.19;28.71
6132;BME280;3097;42.692;23.278;2023-02-17T09:06:04;95952.59;;;17.35;29.72
6132;BME280;3097;42.692;23.278;2023-02-17T09:08:30;95890.16;;;16.50;28.77
6132;BME280;3097;42.692;23.278;2023-02-17T09:10:56;95951.19;;;16.42;28.79
6132;BME280;3097;42.692;23.278;2023-02-17T09:13:21;95943.44;;;16.19;29.13
6132;BME280;3097;42.692;23.278;2023-02-17T09:15:47;95938.28;;;15.84;29.26
6132;BME280;3097;42.692;23.278;2023-02-17T09:18:14;95938.59;;;15.41;31.17
6132;BME280;3097;42.692;23.278;2023-02-17T09:20:39;95947.63;;;15.38;30.17
6132;BME280;3097;42.692;23.278;2023-02-17T09:23:06;95946.47;;;15.23;31.76
6132;BME280;3097;42.692;23.278;2023-02-17T09:25:32;95951.47;;;15.24;31.15
6132;BME280;3097;42.692;23.278;2023-02-17T09:27:57;95948.59;;;15.02;32.03
6132;BME280;3097;42.692;23.278;2023-02-17T09:30:23;95919.13;;;15.08;32.00
6132;BME280;3097;42.692;23.278;2023-02-17T09:32:48;95919.59;;;15.17;31.26
6132;BME280;3097;42.692;23.278;2023-02-17T09:35:16;95946.16;;;15.31;30.53
6132;BME280;3097;42.692;23.278;2023-02-17T09:37:42;95942.41;;;15.27;31.25
6132;BME280;3097;42.692;23.278;2023-02-17T09:40:16;95941.97;;;15.30;31.67
6132;BME280;3097;42.692;23.278;2023-02-17T09:42:41;95947.84;;;15.37;31.12
6132;BME280;3097;42.692;23.278;2023-02-17T09:45:18;95949.63;;;15.13;30.70
6132;BME280;3097;42.692;23.278;2023-02-17T09:47:54;95940.34;;;14.64;31.66
6132;BME280;3097;42.692;23.278;2023-02-17T09:50:31;95937.03;;;14.57;33.03
6132;BME280;3097;42.692;23.278;2023-02-17T09:55:57;95934.94;;;14.29;33.39
6132;BME280;3097;42.692;23.278;2023-02-17T09:58:33;95949.22;;;14.38;33.84
6132;BME280;3097;42.692;23.278;2023-02-17T10:01:04;95814.22;;;13.48;32.95
6132;BME280;3097;42.692;23.278;2023-02-17T10:03:34;95936.97;;;14.45;32.51
6132;BME280;3097;42.692;23.278;2023-02-17T10:11:32;95924.22;;;14.44;32.16
6132;BME280;3097;42.692;23.278;2023-02-17T10:14:03;95908.06;;;14.23;31.98
6132;BME280;3097;42.692;23.278;2023-02-17T10:16:44;95917.31;;;14.19;32.83
6132;BME280;3097;42.692;23.278;2023-02-17T10:19:17;95893.41;;;14.17;31.41
6132;BME280;3097;42.692;23.278;2023-02-17T10:21:54;95920.53;;;14.33;32.78
6132;BME280;3097;42.692;23.278;2023-02-17T10:24:23;95912.13;;;14.19;32.02
6132;BME280;3097;42.692;23.278;2023-02-17T10:32:23;95902.84;;;14.12;32.84
6132;BME280;3097;42.692;23.278;2023-02-17T10:35:12;95908.91;;;14.06;33.28
6132;BME280;3097;42.692;23.278;2023-02-17T10:37:47;95909.41;;;13.96;33.52
6132;BME280;3097;42.692;23.278;2023-02-17T10:40:22;95901.97;;;14.00;33.22
6132;BME280;3097;42.692;23.278;2023-02-17T10:42:50;95892.09;;;14.08;33.21
6132;BME280;3097;42.692;23.278;2023-02-17T10:47:55;95888.22;;;13.81;33.93
6132;BME280;3097;42.692;23.278;2023-02-17T10:50:23;95885.34;;;13.71;33.31
6132;BME280;3097;42.692;23.278;2023-02-17T10:52:49;95883.34;;;13.73;34.22
6132;BME280;3097;42.692;23.278;2023-02-17T10:57:47;95847.69;;;13.50;34.34
6132;BME280;3097;42.692;23.278;2023-02-17T11:00:17;95877.28;;;13.79;34.15
6132;BME280;3097;42.692;23.278;2023-02-17T11:02:45;95871.53;;;13.77;34.30
6132;BME280;3097;42.692;23.278;2023-02-17T11:05:29;95878.75;;;13.75;34.39
6132;BME280;3097;42.692;23.278;2023-02-17T11:08:00;95866.91;;;13.79;34.41
6132;BME280;3097;42.692;23.278;2023-02-17T11:10:28;95870.50;;;13.78;34.65
6132;BME280;3097;42.692;23.278;2023-02-17T11:12:55;95870.81;;;13.88;33.15
6132;BME280;3097;42.692;23.278;2023-02-17T11:15:25;95867.56;;;13.74;34.02
6132;BME280;3097;42.692;23.278;2023-02-17T11:17:51;95865.63;;;13.70;35.00
6132;BME280;3097;42.692;23.278;2023-02-17T11:22:58;95870.97;;;13.75;34.78
6132;BME280;3097;42.692;23.278;2023-02-17T11:25:35;95859.66;;;13.87;34.53
6132;BME280;3097;42.692;23.278;2023-02-17T11:28:25;95857.34;;;13.79;34.50
6132;BME280;3097;42.692;23.278;2023-02-17T11:30:57;95858.44;;;13.90;33.53
6132;BME280;3097;42.692;23.278;2023-02-17T11:33:37;95814.03;;;13.50;33.91
6132;BME280;3097;42.692;23.278;2023-02-17T11:36:05;95850.06;;;13.88;33.87
6132;BME280;3097;42.692;23.278;2023-02-17T11:41:04;95847.34;;;13.83;33.40
6132;BME280;3097;42.692;23.278;2023-02-17T11:43:31;95838.28;;;13.74;33.70
6132;BME280;3097;42.692;23.278;2023-02-17T11:56:21;95707.59;;;12.97;33.62
6132;BME280;3097;42.692;23.278;2023-02-17T11:59:26;95833.09;;;13.74;33.76
6132;BME280;3097;42.692;23.278;2023-02-17T12:01:57;95837.56;;;13.67;34.30
6132;BME280;3097;42.692;23.278;2023-02-17T12:07:25;95816.16;;;13.71;33.52
6132;BME280;3097;42.692;23.278;2023-02-17T12:12:50;95821.44;;;13.65;34.49
6132;BME280;3097;42.692;23.278;2023-02-17T12:21:06;95808.53;;;13.76;33.57
6132;BME280;3097;42.692;23.278;2023-02-17T12:34:41;95794.31;;;13.67;34.79
6132;BME280;3097;42.692;23.278;2023-02-17T12:37:22;95772.19;;;13.65;34.04
6132;BME280;3097;42.692;23.278;2023-02-17T12:42:49;95777.38;;;13.65;33.77
6132;BME280;3097;42.692;23.278;2023-02-17T12:45:24;95774.41;;;13.79;33.76
6132;BME280;3097;42.692;23.278;2023-02-17T12:53:46;95768.00;;;13.82;34.56
6132;BME280;3097;42.692;23.278;2023-02-17T12:56:36;95747.88;;;13.66;34.03
6132;BME280;3097;42.692;23.278;2023-02-17T12:59:15;95760.56;;;13.85;34.12
6132;BME280;3097;42.692;23.278;2023-02-17T13:02:20;95753.69;;;13.79;34.30
6132;BME280;3097;42.692;23.278;2023-02-17T13:04:49;95761.72;;;13.89;34.40
6132;BME280;3097;42.692;23.278;2023-02-17T13:09:59;95763.94;;;14.16;33.07
6132;BME280;3097;42.692;23.278;2023-02-17T13:14:51;95746.59;;;14.16;33.35
6132;BME280;3097;42.692;23.278;2023-02-17T13:20:25;95761.03;;;14.24;32.25
6132;BME280;3097;42.692;23.278;2023-02-17T13:23:09;95751.88;;;14.21;32.18
6132;BME280;3097;42.692;23.278;2023-02-17T13:25:36;95738.03;;;14.16;32.56
6132;BME280;3097;42.692;23.278;2023-02-17T13:28:15;95764.03;;;14.39;31.69
6132;BME280;3097;42.692;23.278;2023-02-17T13:30:43;95742.50;;;14.39;30.66
6132;BME280;3097;42.692;23.278;2023-02-17T13:35:47;95754.84;;;14.37;30.44
6132;BME280;3097;42.692;23.278;2023-02-17T13:38:24;95746.00;;;14.44;30.80
6132;BME280;3097;42.692;23.278;2023-02-17T13:40:50;95755.47;;;14.39;31.24
6132;BME280;3097;42.692;23.278;2023-02-17T13:43:17;95751.09;;;14.51;29.40
6132;BME280;3097;42.692;23.278;2023-02-17T13:45:48;95752.66;;;14.52;29.05
6132;BME280;3097;42.692;23.278;2023-02-17T13:51:38;95751.06;;;14.39;29.63
6132;BME280;3097;42.692;23.278;2023-02-17T13:53:40;95752.91;;;14.50;29.76
6132;BME280;3097;42.692;23.278;2023-02-17T13:56:26;95757.41;;;14.55;29.48
6132;BME280;3097;42.692;23.278;2023-02-17T13:58:53;95758.22;;;14.55;29.37
6132;BME280;3097;42.692;23.278;2023-02-17T14:01:22;95752.66;;;14.52;29.04
6132;BME280;3097;42.692;23.278;2023-02-17T14:03:53;95754.56;;;14.45;28.40
6132;BME280;3097;42.692;23.278;2023-02-17T14:06:27;95678.69;;;13.96;28.47
6132;BME280;3097;42.692;23.278;2023-02-17T14:08:54;95748.97;;;14.29;29.26
6132;BME280;3097;42.692;23.278;2023-02-17T14:11:22;95754.06;;;14.36;29.37
6132;BME280;3097;42.692;23.278;2023-02-17T14:13:50;95755.97;;;14.17;30.98
6132;BME280;3097;42.692;23.278;2023-02-17T14:16:36;95736.34;;;14.21;31.40
6132;BME280;3097;42.692;23.278;2023-02-17T14:21:39;95752.59;;;14.28;32.00
6132;BME280;3097;42.692;23.278;2023-02-17T14:24:05;95678.66;;;13.54;33.00
6132;BME280;3097;42.692;23.278;2023-02-17T14:26:54;95755.25;;;14.10;32.88
6132;BME280;3097;42.692;23.278;2023-02-17T14:29:20;95735.94;;;13.94;32.78
6132;BME280;3097;42.692;23.278;2023-02-17T14:31:48;95756.63;;;14.13;32.84
6132;BME280;3097;42.692;23.278;2023-02-17T14:34:27;95752.56;;;14.05;33.69
6132;BME280;3097;42.692;23.278;2023-02-17T14:36:54;95755.56;;;14.02;34.20
6132;BME280;3097;42.692;23.278;2023-02-17T14:39:19;95675.38;;;13.47;34.19
6132;BME280;3097;42.692;23.278;2023-02-17T14:41:45;95748.91;;;13.94;34.10
6132;BME280;3097;42.692;23.278;2023-02-17T14:44:10;95746.72;;;13.91;34.24
6132;BME280;3097;42.692;23.278;2023-02-17T14:46:36;95746.50;;;13.93;34.22
6132;BME280;3097;42.692;23.278;2023-02-17T14:49:01;95721.50;;;13.69;34.57
6132;BME280;3097;42.692;23.278;2023-02-17T14:51:36;95736.34;;;13.80;34.48
6132;BME280;3097;42.692;23.278;2023-02-17T14:54:09;95753.09;;;13.77;34.94
6132;BME280;3097;42.692;23.278;2023-02-17T14:56:40;95746.69;;;13.80;34.73
6132;BME280;3097;42.692;23.278;2023-02-17T14:59:08;95745.16;;;13.61;35.50
6132;BME280;3097;42.692;23.278;2023-02-17T15:01:34;95753.47;;;13.63;35.22
6132;BME280;3097;42.692;23.278;2023-02-17T15:03:59;95755.88;;;13.64;35.25
6132;BME280;3097;42.692;23.278;2023-02-17T15:06:37;95747.75;;;13.61;35.67
6132;BME280;3097;42.692;23.278;2023-02-17T15:09:08;95699.00;;;13.21;35.47
6132;BME280;3097;42.692;23.278;2023-02-17T15:11:34;95751.06;;;13.31;36.00
6132;BME280;3097;42.692;23.278;2023-02-17T15:14:05;95760.56;;;13.37;35.83
6132;BME280;3097;42.692;23.278;2023-02-17T15:16:30;95746.75;;;13.43;35.25
6132;BME280;3097;42.692;23.278;2023-02-17T15:18:56;95752.56;;;13.39;35.54